THY1525 EHAM-LTFM
Flight info
| Callsign | THY1525 |
|---|---|
| Flight time | N/A |
| Altitude | 37000 |
| Route | EDUPO Z739 MISGO DCT GMH DCT EKSAK DCT SWALM DCT GASKA DCT ENITA DCT ETVIS DCT BUDEX DCT TEKNO DCT OGVUN DCT DUZLA DCT MAVIR DCT TIMUR L606 GASRU DCT RILEX |
| Aircraft | A359/H-SDE2E3GHIJ3J4J5LM1ORWXY/LB1D1 |
Departure
| Time | 2026-04-30 12:42 |
|---|---|
| Airport | Amsterdam Airport Schiphol (EHAM) |
Arrival
| Time | N/A |
|---|---|
| Airport | İstanbul Airport (LTFM) |
| Time | Latitude | Longitude | Altitude | Speed | Heading |
|---|---|---|---|---|---|
| 2026-04-30 12:04 | 52.30695 | 4.77154 | 5 ft | 0 kts | 2° |
| 2026-04-30 12:30 | 52.30694 | 4.77155 | 5 ft | 1 kts | 2° |
| 2026-04-30 12:30 | 52.30679 | 4.77152 | 5 ft | 4 kts | 18° |
| 2026-04-30 12:30 | 52.30658 | 4.77131 | 9 ft | 4 kts | 59° |
| 2026-04-30 12:30 | 52.30650 | 4.77091 | 5 ft | 4 kts | 90° |
| 2026-04-30 12:31 | 52.30651 | 4.77075 | 6 ft | 1 kts | 93° |
| 2026-04-30 12:31 | 52.30651 | 4.77074 | 6 ft | 0 kts | 93° |
| 2026-04-30 12:34 | 52.30650 | 4.77081 | 6 ft | 3 kts | 93° |
| 2026-04-30 12:34 | 52.30647 | 4.77184 | 5 ft | 15 kts | 93° |
| 2026-04-30 12:34 | 52.30639 | 4.77360 | 5 ft | 16 kts | 92° |
| 2026-04-30 12:34 | 52.30643 | 4.77528 | 5 ft | 9 kts | 82° |
| 2026-04-30 12:35 | 52.30684 | 4.77585 | 5 ft | 9 kts | 10° |
| 2026-04-30 12:35 | 52.30767 | 4.77597 | 5 ft | 16 kts | 4° |
| 2026-04-30 12:35 | 52.30908 | 4.77610 | 5 ft | 24 kts | 3° |
| 2026-04-30 12:35 | 52.31090 | 4.77625 | 5 ft | 27 kts | 3° |
| 2026-04-30 12:36 | 52.31285 | 4.77645 | 5 ft | 29 kts | 4° |
| 2026-04-30 12:36 | 52.31450 | 4.77627 | 5 ft | 22 kts | 332° |
| 2026-04-30 12:36 | 52.31564 | 4.77463 | 5 ft | 17 kts | 305° |
| 2026-04-30 12:36 | 52.31574 | 4.77273 | 5 ft | 18 kts | 266° |
| 2026-04-30 12:37 | 52.31567 | 4.77044 | 5 ft | 22 kts | 267° |
| 2026-04-30 12:37 | 52.31557 | 4.76778 | 5 ft | 25 kts | 266° |
| 2026-04-30 12:37 | 52.31547 | 4.76486 | 5 ft | 27 kts | 266° |
| 2026-04-30 12:37 | 52.31537 | 4.76175 | 5 ft | 29 kts | 266° |
| 2026-04-30 12:38 | 52.31525 | 4.75839 | 5 ft | 28 kts | 266° |
| 2026-04-30 12:38 | 52.31514 | 4.75513 | 5 ft | 30 kts | 266° |
| 2026-04-30 12:38 | 52.31504 | 4.75232 | 5 ft | 24 kts | 266° |
| 2026-04-30 12:38 | 52.31494 | 4.74949 | 5 ft | 26 kts | 267° |
| 2026-04-30 12:39 | 52.31488 | 4.74757 | 5 ft | 8 kts | 266° |
| 2026-04-30 12:39 | 52.31487 | 4.74716 | 5 ft | 0 kts | 269° |
| 2026-04-30 12:39 | 52.31493 | 4.74697 | 5 ft | 5 kts | 299° |
| 2026-04-30 12:39 | 52.31522 | 4.74672 | 5 ft | 5 kts | 346° |
| 2026-04-30 12:40 | 52.31572 | 4.74662 | 5 ft | 11 kts | 356° |
| 2026-04-30 12:40 | 52.31652 | 4.74679 | 6 ft | 9 kts | 25° |
| 2026-04-30 12:40 | 52.31670 | 4.74754 | 6 ft | 8 kts | 87° |
| 2026-04-30 12:40 | 52.31670 | 4.74823 | 5 ft | 0 kts | 88° |
| 2026-04-30 12:41 | 52.31675 | 4.74991 | 3 ft | 48 kts | 86° |
| 2026-04-30 12:41 | 52.31708 | 4.75931 | 5 ft | 116 kts | 86° |
| 2026-04-30 12:41 | 52.31766 | 4.77573 | 23 ft | 171 kts | 88° |
| 2026-04-30 12:42 | 52.31836 | 4.79547 | 774 ft | 172 kts | 89° |
| 2026-04-30 12:42 | 52.31898 | 4.81409 | 1990 ft | 157 kts | 89° |
| 2026-04-30 12:42 | 52.31957 | 4.83148 | 2810 ft | 159 kts | 90° |
| 2026-04-30 12:42 | 52.32020 | 4.85088 | 3139 ft | 184 kts | 92° |
| 2026-04-30 12:43 | 52.31909 | 4.87323 | 3360 ft | 211 kts | 107° |
| 2026-04-30 12:43 | 52.31362 | 4.89641 | 3961 ft | 222 kts | 116° |
| 2026-04-30 12:43 | 52.30713 | 4.91979 | 4706 ft | 229 kts | 116° |
| 2026-04-30 12:43 | 52.30052 | 4.94405 | 5460 ft | 237 kts | 115° |
| 2026-04-30 12:44 | 52.29447 | 4.96908 | 6293 ft | 242 kts | 110° |
| 2026-04-30 12:44 | 52.28960 | 4.99561 | 7181 ft | 246 kts | 107° |
| 2026-04-30 12:44 | 52.28495 | 5.02274 | 8053 ft | 250 kts | 107° |
| 2026-04-30 12:44 | 52.28021 | 5.05030 | 8943 ft | 254 kts | 107° |
| 2026-04-30 12:45 | 52.27536 | 5.07822 | 9869 ft | 257 kts | 107° |
| 2026-04-30 12:45 | 52.27043 | 5.10648 | 10720 ft | 263 kts | 106° |
| 2026-04-30 12:45 | 52.26521 | 5.13643 | 11150 ft | 285 kts | 106° |
| 2026-04-30 12:45 | 52.25957 | 5.16872 | 11500 ft | 306 kts | 106° |
| 2026-04-30 12:46 | 52.25358 | 5.20295 | 12066 ft | 319 kts | 106° |
| 2026-04-30 12:46 | 52.24733 | 5.23809 | 12810 ft | 325 kts | 107° |
| 2026-04-30 12:46 | 52.23795 | 5.27200 | 13575 ft | 332 kts | 120° |
| 2026-04-30 12:46 | 52.22473 | 5.30316 | 14380 ft | 336 kts | 124° |
| 2026-04-30 12:47 | 52.21097 | 5.33417 | 15109 ft | 341 kts | 124° |
| 2026-04-30 12:47 | 52.19705 | 5.36583 | 15835 ft | 344 kts | 123° |
| 2026-04-30 12:47 | 52.18307 | 5.39779 | 16574 ft | 348 kts | 123° |
| 2026-04-30 12:47 | 52.16915 | 5.42966 | 17288 ft | 352 kts | 123° |
| 2026-04-30 12:48 | 52.15484 | 5.46244 | 18024 ft | 357 kts | 123° |
| 2026-04-30 12:48 | 52.14034 | 5.49565 | 18637 ft | 364 kts | 123° |
| 2026-04-30 12:48 | 52.12557 | 5.52941 | 19273 ft | 368 kts | 123° |
| 2026-04-30 12:48 | 52.11066 | 5.56349 | 19901 ft | 372 kts | 123° |
| 2026-04-30 12:49 | 52.09556 | 5.59804 | 20568 ft | 376 kts | 123° |
| 2026-04-30 12:49 | 52.08030 | 5.63281 | 21231 ft | 381 kts | 123° |
| 2026-04-30 12:49 | 52.06469 | 5.66795 | 21870 ft | 385 kts | 125° |
| 2026-04-30 12:49 | 52.04768 | 5.70178 | 22526 ft | 390 kts | 128° |
| 2026-04-30 12:50 | 52.02972 | 5.73526 | 23169 ft | 394 kts | 129° |
| 2026-04-30 12:50 | 52.01158 | 5.76893 | 23843 ft | 398 kts | 129° |
| 2026-04-30 12:50 | 51.99326 | 5.80299 | 24369 ft | 403 kts | 129° |
| 2026-04-30 12:50 | 51.97474 | 5.83740 | 24898 ft | 406 kts | 129° |
| 2026-04-30 12:51 | 51.95609 | 5.87208 | 25470 ft | 409 kts | 129° |
| 2026-04-30 12:51 | 51.93736 | 5.90703 | 25975 ft | 414 kts | 129° |
| 2026-04-30 12:51 | 51.91837 | 5.94247 | 26514 ft | 416 kts | 129° |
| 2026-04-30 12:51 | 51.89936 | 5.97793 | 27090 ft | 419 kts | 129° |
| 2026-04-30 12:52 | 51.88039 | 6.01326 | 27616 ft | 422 kts | 129° |
| 2026-04-30 12:52 | 51.86106 | 6.04918 | 28170 ft | 425 kts | 129° |
| 2026-04-30 12:52 | 51.84156 | 6.08541 | 28658 ft | 429 kts | 129° |
| 2026-04-30 12:52 | 51.82179 | 6.12189 | 29164 ft | 432 kts | 129° |
| 2026-04-30 12:53 | 51.80181 | 6.15852 | 29648 ft | 435 kts | 129° |
| 2026-04-30 12:53 | 51.78167 | 6.19532 | 30122 ft | 438 kts | 129° |
| 2026-04-30 12:53 | 51.76141 | 6.23231 | 30590 ft | 441 kts | 129° |
| 2026-04-30 12:53 | 51.74102 | 6.26956 | 30977 ft | 444 kts | 129° |
| 2026-04-30 12:54 | 51.72052 | 6.30689 | 31391 ft | 447 kts | 129° |
| 2026-04-30 12:54 | 51.69985 | 6.34447 | 31702 ft | 451 kts | 129° |
| 2026-04-30 12:54 | 51.67890 | 6.38249 | 32068 ft | 453 kts | 129° |
| 2026-04-30 12:54 | 51.65793 | 6.42053 | 32468 ft | 455 kts | 129° |
| 2026-04-30 12:55 | 51.63715 | 6.45817 | 32837 ft | 457 kts | 129° |
| 2026-04-30 12:55 | 51.61600 | 6.49643 | 33224 ft | 458 kts | 129° |
| 2026-04-30 12:55 | 51.59475 | 6.53485 | 33583 ft | 460 kts | 129° |
| 2026-04-30 12:55 | 51.57340 | 6.57339 | 33892 ft | 462 kts | 129° |
| 2026-04-30 12:56 | 51.55195 | 6.61206 | 34180 ft | 465 kts | 129° |
| 2026-04-30 12:56 | 51.53038 | 6.65089 | 34466 ft | 467 kts | 129° |
| 2026-04-30 12:56 | 51.50874 | 6.68977 | 34767 ft | 467 kts | 129° |
| 2026-04-30 12:56 | 51.48711 | 6.72856 | 35115 ft | 467 kts | 129° |
| 2026-04-30 12:57 | 51.46542 | 6.76740 | 35384 ft | 468 kts | 129° |
| 2026-04-30 12:57 | 51.44363 | 6.80636 | 35632 ft | 469 kts | 129° |
| 2026-04-30 12:57 | 51.42264 | 6.84632 | 35937 ft | 467 kts | 124° |
| 2026-04-30 12:57 | 51.40492 | 6.88957 | 36259 ft | 464 kts | 116° |
| 2026-04-30 12:58 | 51.39113 | 6.93619 | 36555 ft | 461 kts | 109° |
| 2026-04-30 12:58 | 51.37966 | 6.98336 | 36841 ft | 460 kts | 108° |
| 2026-04-30 12:58 | 51.36868 | 7.03147 | 37131 ft | 460 kts | 107° |
| 2026-04-30 12:58 | 51.35797 | 7.07967 | 37350 ft | 461 kts | 107° |
| 2026-04-30 12:59 | 51.33658 | 7.17582 | 37369 ft | 458 kts | 107° |
| 2026-04-30 12:59 | 51.31488 | 7.27156 | 37367 ft | 459 kts | 107° |
| 2026-04-30 13:00 | 51.29285 | 7.36754 | 37371 ft | 460 kts | 107° |
| 2026-04-30 13:00 | 51.27070 | 7.46342 | 37378 ft | 460 kts | 108° |
| 2026-04-30 13:01 | 51.24844 | 7.55938 | 37375 ft | 460 kts | 108° |
| 2026-04-30 13:01 | 51.22613 | 7.65514 | 37390 ft | 460 kts | 107° |
| 2026-04-30 13:02 | 51.20374 | 7.75083 | 37384 ft | 461 kts | 107° |
| 2026-04-30 13:02 | 51.18127 | 7.84651 | 37381 ft | 461 kts | 107° |
| 2026-04-30 13:03 | 51.15899 | 7.94226 | 37382 ft | 460 kts | 106° |
| 2026-04-30 13:03 | 51.13846 | 8.03813 | 37389 ft | 460 kts | 105° |
| 2026-04-30 13:04 | 51.11804 | 8.13464 | 37383 ft | 461 kts | 105° |
| 2026-04-30 13:04 | 51.09721 | 8.23133 | 37385 ft | 462 kts | 105° |
| 2026-04-30 13:05 | 51.07611 | 8.32799 | 37412 ft | 462 kts | 106° |
| 2026-04-30 13:06 | 51.04425 | 8.47281 | 37421 ft | 463 kts | 106° |
| 2026-04-30 13:06 | 51.02206 | 8.56884 | 37415 ft | 465 kts | 110° |
| 2026-04-30 13:07 | 50.98785 | 8.65691 | 37408 ft | 472 kts | 122° |
| 2026-04-30 13:07 | 50.94781 | 8.73982 | 37411 ft | 473 kts | 124° |
| 2026-04-30 13:08 | 50.90711 | 8.82176 | 37415 ft | 473 kts | 124° |
| 2026-04-30 13:08 | 50.86692 | 8.90410 | 37416 ft | 471 kts | 121° |
| 2026-04-30 13:09 | 50.83485 | 8.99393 | 37418 ft | 467 kts | 112° |
| 2026-04-30 13:09 | 50.80665 | 9.08622 | 37418 ft | 466 kts | 111° |
| 2026-04-30 13:10 | 50.77895 | 9.17871 | 37411 ft | 466 kts | 111° |
| 2026-04-30 13:10 | 50.75093 | 9.27103 | 37412 ft | 466 kts | 112° |
| 2026-04-30 13:11 | 50.72269 | 9.36246 | 37414 ft | 466 kts | 112° |
| 2026-04-30 13:11 | 50.69410 | 9.45513 | 37411 ft | 468 kts | 111° |
| 2026-04-30 13:12 | 50.66558 | 9.54754 | 37402 ft | 469 kts | 111° |
| 2026-04-30 13:12 | 50.63696 | 9.63975 | 37414 ft | 469 kts | 112° |
| 2026-04-30 13:13 | 50.59381 | 9.77790 | 37421 ft | 469 kts | 112° |
| 2026-04-30 13:14 | 50.55047 | 9.91586 | 37424 ft | 470 kts | 111° |
| 2026-04-30 13:14 | 50.50689 | 10.05387 | 37417 ft | 470 kts | 111° |
| 2026-04-30 13:15 | 50.46332 | 10.19105 | 37419 ft | 470 kts | 112° |
| 2026-04-30 13:16 | 50.43408 | 10.28266 | 37426 ft | 470 kts | 111° |
| 2026-04-30 13:16 | 50.40407 | 10.37418 | 37423 ft | 472 kts | 113° |
| 2026-04-30 13:17 | 50.35734 | 10.50983 | 37420 ft | 472 kts | 113° |
| 2026-04-30 13:18 | 50.31054 | 10.64579 | 37424 ft | 472 kts | 113° |
| 2026-04-30 13:18 | 50.26903 | 10.76646 | 37424 ft | 473 kts | 113° |
| 2026-04-30 13:19 | 50.23779 | 10.85691 | 37427 ft | 473 kts | 113° |
| 2026-04-30 13:19 | 50.20644 | 10.94729 | 37418 ft | 473 kts | 113° |
| 2026-04-30 13:20 | 50.17495 | 11.03774 | 37419 ft | 474 kts | 113° |
| 2026-04-30 13:20 | 50.14344 | 11.12793 | 37430 ft | 474 kts | 112° |
| 2026-04-30 13:21 | 50.11185 | 11.21807 | 37428 ft | 474 kts | 112° |
| 2026-04-30 13:22 | 50.06428 | 11.35319 | 37420 ft | 474 kts | 113° |
| 2026-04-30 13:22 | 50.01680 | 11.48733 | 37433 ft | 474 kts | 112° |
| 2026-04-30 13:23 | 49.96890 | 11.62195 | 37422 ft | 475 kts | 113° |
| 2026-04-30 13:24 | 49.90479 | 11.80105 | 37442 ft | 475 kts | 113° |
| 2026-04-30 13:25 | 49.84037 | 11.97974 | 37453 ft | 474 kts | 112° |
| 2026-04-30 13:26 | 49.75970 | 12.20184 | 37429 ft | 475 kts | 113° |
| 2026-04-30 13:28 | 49.67832 | 12.42389 | 37437 ft | 475 kts | 113° |
| 2026-04-30 13:28 | 49.62926 | 12.55690 | 37410 ft | 475 kts | 113° |
| 2026-04-30 13:29 | 49.56364 | 12.73368 | 37429 ft | 475 kts | 113° |
| 2026-04-30 13:31 | 49.48128 | 12.95391 | 37424 ft | 476 kts | 113° |
| 2026-04-30 13:32 | 49.39824 | 13.17411 | 37425 ft | 477 kts | 113° |
| 2026-04-30 13:33 | 49.33157 | 13.34956 | 37420 ft | 477 kts | 114° |
| 2026-04-30 13:34 | 49.28126 | 13.48118 | 37426 ft | 478 kts | 113° |
| 2026-04-30 13:35 | 49.21378 | 13.65670 | 37418 ft | 479 kts | 114° |
| 2026-04-30 13:36 | 49.14593 | 13.83199 | 37456 ft | 479 kts | 114° |
| 2026-04-30 13:36 | 49.09477 | 13.96347 | 37419 ft | 481 kts | 114° |
| 2026-04-30 13:37 | 49.04323 | 14.09518 | 37418 ft | 482 kts | 114° |
| 2026-04-30 13:38 | 48.99156 | 14.22655 | 37441 ft | 482 kts | 114° |
| 2026-04-30 13:39 | 48.92223 | 14.40118 | 37413 ft | 484 kts | 115° |
| 2026-04-30 13:40 | 48.86867 | 14.53140 | 37425 ft | 484 kts | 115° |
| 2026-04-30 13:40 | 48.83290 | 14.61818 | 37422 ft | 485 kts | 115° |
| 2026-04-30 13:41 | 48.79710 | 14.70509 | 37408 ft | 486 kts | 116° |
| 2026-04-30 13:41 | 48.76115 | 14.79211 | 37411 ft | 487 kts | 116° |
| 2026-04-30 13:42 | 48.72505 | 14.87918 | 37409 ft | 487 kts | 116° |
| 2026-04-30 13:42 | 48.67088 | 15.00932 | 37420 ft | 488 kts | 116° |
| 2026-04-30 13:43 | 48.63479 | 15.09567 | 37410 ft | 489 kts | 116° |
| 2026-04-30 13:43 | 48.59843 | 15.18237 | 37414 ft | 489 kts | 116° |
| 2026-04-30 13:44 | 48.56178 | 15.26948 | 37413 ft | 489 kts | 116° |
| 2026-04-30 13:44 | 48.52542 | 15.35566 | 37405 ft | 489 kts | 117° |
| 2026-04-30 13:45 | 48.47041 | 15.48549 | 37413 ft | 490 kts | 117° |
| 2026-04-30 13:46 | 48.43332 | 15.57270 | 37409 ft | 491 kts | 117° |
| 2026-04-30 13:46 | 48.39667 | 15.65853 | 37410 ft | 491 kts | 117° |
| 2026-04-30 13:47 | 48.35957 | 15.74519 | 37415 ft | 492 kts | 118° |
| 2026-04-30 13:47 | 48.32245 | 15.83161 | 37413 ft | 492 kts | 118° |
| 2026-04-30 13:48 | 48.28530 | 15.91785 | 37414 ft | 492 kts | 118° |
| 2026-04-30 13:48 | 48.24809 | 16.00390 | 37413 ft | 492 kts | 118° |
| 2026-04-30 13:49 | 48.21066 | 16.09023 | 37415 ft | 493 kts | 118° |
| 2026-04-30 13:49 | 48.17346 | 16.17576 | 37412 ft | 494 kts | 118° |
| 2026-04-30 13:50 | 48.13587 | 16.26191 | 37405 ft | 494 kts | 119° |
| 2026-04-30 13:50 | 48.07910 | 16.39145 | 37429 ft | 495 kts | 119° |
| 2026-04-30 13:51 | 48.04157 | 16.47678 | 37400 ft | 496 kts | 119° |
| 2026-04-30 13:51 | 48.00343 | 16.56320 | 37400 ft | 497 kts | 119° |
| 2026-04-30 13:52 | 47.96533 | 16.64925 | 37399 ft | 496 kts | 119° |
| 2026-04-30 13:52 | 47.92739 | 16.73467 | 37397 ft | 496 kts | 119° |
| 2026-04-30 13:53 | 47.88919 | 16.82043 | 37391 ft | 497 kts | 120° |
| 2026-04-30 13:53 | 47.85091 | 16.90608 | 37387 ft | 497 kts | 120° |
| 2026-04-30 13:54 | 47.81259 | 16.99157 | 37381 ft | 497 kts | 120° |
| 2026-04-30 13:54 | 47.77408 | 17.07723 | 37397 ft | 497 kts | 120° |
| 2026-04-30 13:55 | 47.73550 | 17.16277 | 37379 ft | 499 kts | 120° |
| 2026-04-30 13:55 | 47.69677 | 17.24833 | 37378 ft | 499 kts | 120° |
| 2026-04-30 13:56 | 47.65798 | 17.33377 | 37381 ft | 499 kts | 120° |
| 2026-04-30 13:56 | 47.61908 | 17.41920 | 37373 ft | 499 kts | 120° |
| 2026-04-30 13:57 | 47.57750 | 17.50112 | 37373 ft | 502 kts | 126° |
| 2026-04-30 13:57 | 47.53324 | 17.58119 | 37373 ft | 502 kts | 126° |
| 2026-04-30 13:58 | 47.46752 | 17.70183 | 37372 ft | 502 kts | 125° |
| 2026-04-30 13:59 | 47.42409 | 17.78270 | 37374 ft | 502 kts | 126° |
| 2026-04-30 13:59 | 47.38070 | 17.86345 | 37369 ft | 502 kts | 126° |
| 2026-04-30 14:00 | 47.33927 | 17.94634 | 37372 ft | 501 kts | 122° |
| 2026-04-30 14:00 | 47.27983 | 18.07231 | 37370 ft | 501 kts | 122° |
| 2026-04-30 14:01 | 47.23959 | 18.15592 | 37363 ft | 501 kts | 123° |
| 2026-04-30 14:01 | 47.19890 | 18.23939 | 37360 ft | 501 kts | 123° |
| 2026-04-30 14:02 | 47.15815 | 18.32261 | 37357 ft | 502 kts | 123° |
| 2026-04-30 14:02 | 47.11728 | 18.40585 | 37357 ft | 502 kts | 123° |
| 2026-04-30 14:03 | 47.07641 | 18.48889 | 37354 ft | 502 kts | 123° |
| 2026-04-30 14:03 | 47.03541 | 18.57196 | 37347 ft | 502 kts | 124° |
| 2026-04-30 14:04 | 46.99441 | 18.65479 | 37350 ft | 502 kts | 124° |
| 2026-04-30 14:04 | 46.95327 | 18.73764 | 37362 ft | 502 kts | 124° |
| 2026-04-30 14:05 | 46.91205 | 18.82023 | 37339 ft | 503 kts | 124° |
| 2026-04-30 14:05 | 46.87055 | 18.90261 | 37337 ft | 503 kts | 124° |
| 2026-04-30 14:06 | 46.80822 | 19.02602 | 37329 ft | 504 kts | 124° |
| 2026-04-30 14:07 | 46.75266 | 19.13570 | 37330 ft | 505 kts | 125° |
| 2026-04-30 14:08 | 46.68982 | 19.25924 | 37327 ft | 506 kts | 125° |
| 2026-04-30 14:08 | 46.62686 | 19.38248 | 37338 ft | 506 kts | 125° |
| 2026-04-30 14:09 | 46.58471 | 19.46469 | 37326 ft | 507 kts | 125° |
| 2026-04-30 14:10 | 46.52158 | 19.58734 | 37309 ft | 508 kts | 126° |
| 2026-04-30 14:10 | 46.47915 | 19.66946 | 37318 ft | 509 kts | 126° |
| 2026-04-30 14:11 | 46.43658 | 19.75163 | 37319 ft | 510 kts | 126° |
| 2026-04-30 14:11 | 46.39389 | 19.83379 | 37311 ft | 511 kts | 126° |
| 2026-04-30 14:12 | 46.34951 | 19.91416 | 37311 ft | 511 kts | 129° |
| 2026-04-30 14:12 | 46.30376 | 19.99286 | 37303 ft | 511 kts | 129° |
| 2026-04-30 14:13 | 46.25817 | 20.07164 | 37302 ft | 511 kts | 129° |
| 2026-04-30 14:13 | 46.21309 | 20.15015 | 37303 ft | 511 kts | 128° |
| 2026-04-30 14:14 | 46.16779 | 20.22912 | 37301 ft | 512 kts | 129° |
| 2026-04-30 14:14 | 46.12227 | 20.30826 | 37305 ft | 512 kts | 129° |
| 2026-04-30 14:15 | 46.07671 | 20.38719 | 37300 ft | 513 kts | 129° |
| 2026-04-30 14:15 | 46.03110 | 20.46587 | 37292 ft | 513 kts | 129° |
| 2026-04-30 14:16 | 45.98533 | 20.54473 | 37285 ft | 512 kts | 129° |
| 2026-04-30 14:16 | 45.93957 | 20.62336 | 37294 ft | 513 kts | 129° |
| 2026-04-30 14:17 | 45.89371 | 20.70190 | 37269 ft | 513 kts | 129° |
| 2026-04-30 14:17 | 45.84892 | 20.77839 | 37275 ft | 514 kts | 129° |
| 2026-04-30 14:18 | 45.80284 | 20.85687 | 37269 ft | 514 kts | 129° |
| 2026-04-30 14:18 | 45.73491 | 20.97215 | 37257 ft | 514 kts | 129° |
| 2026-04-30 14:19 | 45.66694 | 21.08702 | 37258 ft | 515 kts | 130° |
| 2026-04-30 14:20 | 45.62055 | 21.16515 | 37254 ft | 514 kts | 130° |
| 2026-04-30 14:20 | 45.55096 | 21.28198 | 37250 ft | 515 kts | 130° |
| 2026-04-30 14:21 | 45.50447 | 21.35972 | 37247 ft | 516 kts | 130° |
| 2026-04-30 14:22 | 45.43449 | 21.47634 | 37244 ft | 516 kts | 130° |
| 2026-04-30 14:22 | 45.36432 | 21.59282 | 37240 ft | 517 kts | 131° |
| 2026-04-30 14:23 | 45.27059 | 21.74763 | 37227 ft | 517 kts | 131° |
| 2026-04-30 14:24 | 45.20038 | 21.86305 | 37239 ft | 517 kts | 131° |
| 2026-04-30 14:25 | 45.10614 | 22.01721 | 37249 ft | 517 kts | 132° |
| 2026-04-30 14:26 | 45.03540 | 22.13236 | 37251 ft | 517 kts | 132° |
| 2026-04-30 14:27 | 44.96448 | 22.24735 | 37236 ft | 517 kts | 132° |
| 2026-04-30 14:27 | 44.91895 | 22.32094 | 37267 ft | 518 kts | 133° |
| 2026-04-30 14:28 | 44.84737 | 22.43621 | 37268 ft | 520 kts | 133° |
| 2026-04-30 14:28 | 44.79970 | 22.51271 | 37278 ft | 519 kts | 133° |
| 2026-04-30 14:29 | 44.70445 | 22.66497 | 37287 ft | 521 kts | 134° |
| 2026-04-30 14:31 | 44.58425 | 22.85593 | 37288 ft | 522 kts | 134° |
| 2026-04-30 14:31 | 44.51203 | 22.97005 | 37289 ft | 522 kts | 134° |
| 2026-04-30 14:32 | 44.43966 | 23.08394 | 37298 ft | 522 kts | 134° |
| 2026-04-30 14:33 | 44.39136 | 23.15974 | 37296 ft | 522 kts | 135° |
| 2026-04-30 14:33 | 44.31866 | 23.27337 | 37298 ft | 522 kts | 135° |
| 2026-04-30 14:34 | 44.27017 | 23.34889 | 37302 ft | 522 kts | 135° |
| 2026-04-30 14:34 | 44.22194 | 23.42383 | 37307 ft | 523 kts | 135° |
| 2026-04-30 14:35 | 44.14898 | 23.53683 | 37306 ft | 523 kts | 135° |
| 2026-04-30 14:36 | 44.11637 | 23.58719 | 37300 ft | 523 kts | 135° |
| 2026-04-30 14:37 | 43.99776 | 23.76959 | 37320 ft | 524 kts | 135° |
| 2026-04-30 14:37 | 43.94906 | 23.84413 | 37301 ft | 524 kts | 135° |
| 2026-04-30 14:38 | 43.90038 | 23.91847 | 37294 ft | 524 kts | 136° |
| 2026-04-30 14:38 | 43.85129 | 23.99323 | 37315 ft | 524 kts | 136° |
| 2026-04-30 14:39 | 43.80220 | 24.06779 | 37310 ft | 524 kts | 136° |
| 2026-04-30 14:39 | 43.75292 | 24.14245 | 37305 ft | 524 kts | 136° |
| 2026-04-30 14:40 | 43.69255 | 24.23364 | 37300 ft | 524 kts | 136° |
| 2026-04-30 14:40 | 43.65066 | 24.29397 | 37298 ft | 522 kts | 140° |
| 2026-04-30 14:41 | 43.59793 | 24.36280 | 37299 ft | 522 kts | 141° |
| 2026-04-30 14:41 | 43.54502 | 24.43138 | 37296 ft | 521 kts | 141° |
| 2026-04-30 14:42 | 43.49257 | 24.50050 | 37293 ft | 522 kts | 140° |
| 2026-04-30 14:42 | 43.44335 | 24.57433 | 37279 ft | 524 kts | 136° |
| 2026-04-30 14:43 | 43.39472 | 24.64925 | 37287 ft | 525 kts | 136° |
| 2026-04-30 14:43 | 43.34612 | 24.72408 | 37282 ft | 525 kts | 136° |
| 2026-04-30 14:44 | 43.29780 | 24.79833 | 37281 ft | 525 kts | 136° |
| 2026-04-30 14:44 | 43.24883 | 24.87341 | 37272 ft | 525 kts | 136° |
| 2026-04-30 14:45 | 43.20040 | 24.94746 | 37268 ft | 524 kts | 136° |
| 2026-04-30 14:45 | 43.15158 | 25.02192 | 37261 ft | 524 kts | 136° |
| 2026-04-30 14:46 | 43.10282 | 25.09610 | 37262 ft | 525 kts | 136° |
| 2026-04-30 14:46 | 43.05393 | 25.17028 | 37255 ft | 525 kts | 137° |
| 2026-04-30 14:47 | 43.00493 | 25.24444 | 37248 ft | 525 kts | 137° |
| 2026-04-30 14:47 | 42.95588 | 25.31847 | 37233 ft | 525 kts | 137° |
| 2026-04-30 14:48 | 42.90719 | 25.39180 | 36996 ft | 525 kts | 137° |
| 2026-04-30 14:48 | 42.88254 | 25.42882 | 36726 ft | 529 kts | 137° |
| 2026-04-30 14:48 | 42.85770 | 25.46610 | 36464 ft | 531 kts | 137° |
| 2026-04-30 14:49 | 42.83282 | 25.50338 | 36194 ft | 532 kts | 137° |
| 2026-04-30 14:49 | 42.80780 | 25.54084 | 35944 ft | 534 kts | 138° |
| 2026-04-30 14:49 | 42.78275 | 25.57829 | 35687 ft | 536 kts | 138° |
| 2026-04-30 14:49 | 42.75757 | 25.61585 | 35425 ft | 538 kts | 138° |
| 2026-04-30 14:50 | 42.70699 | 25.69125 | 34932 ft | 541 kts | 139° |
| 2026-04-30 14:50 | 42.68155 | 25.72909 | 34685 ft | 542 kts | 139° |
| 2026-04-30 14:51 | 42.63053 | 25.80484 | 34203 ft | 545 kts | 139° |
| 2026-04-30 14:51 | 42.60491 | 25.84280 | 33937 ft | 546 kts | 139° |
| 2026-04-30 14:51 | 42.55353 | 25.91877 | 33379 ft | 544 kts | 139° |
| 2026-04-30 14:52 | 42.52798 | 25.95651 | 33066 ft | 541 kts | 139° |
| 2026-04-30 14:52 | 42.47776 | 26.03051 | 32532 ft | 534 kts | 140° |
| 2026-04-30 14:52 | 42.45260 | 26.06750 | 32259 ft | 531 kts | 140° |
| 2026-04-30 14:53 | 42.40270 | 26.14073 | 31741 ft | 526 kts | 140° |
| 2026-04-30 14:53 | 42.37795 | 26.17697 | 31485 ft | 523 kts | 140° |
| 2026-04-30 14:54 | 42.32872 | 26.24892 | 31149 ft | 519 kts | 140° |
| 2026-04-30 14:54 | 42.27977 | 26.32026 | 31151 ft | 518 kts | 140° |
| 2026-04-30 14:55 | 42.20600 | 26.42745 | 31141 ft | 520 kts | 139° |
| 2026-04-30 14:56 | 42.10759 | 26.56989 | 31121 ft | 521 kts | 139° |
| 2026-04-30 14:57 | 42.03353 | 26.67758 | 31035 ft | 524 kts | 136° |
| 2026-04-30 14:57 | 41.98732 | 26.75325 | 30513 ft | 522 kts | 135° |
| 2026-04-30 14:58 | 41.94181 | 26.82860 | 30002 ft | 517 kts | 135° |
| 2026-04-30 14:58 | 41.91921 | 26.86596 | 29691 ft | 514 kts | 135° |
| 2026-04-30 14:58 | 41.87434 | 26.94002 | 29133 ft | 508 kts | 135° |
| 2026-04-30 14:59 | 41.82996 | 27.01311 | 28560 ft | 501 kts | 135° |
| 2026-04-30 15:00 | 41.76440 | 27.12076 | 27749 ft | 493 kts | 135° |
| 2026-04-30 15:00 | 41.72121 | 27.19146 | 27225 ft | 488 kts | 135° |
| 2026-04-30 15:01 | 41.67851 | 27.26121 | 26682 ft | 482 kts | 135° |
| 2026-04-30 15:01 | 41.65728 | 27.29582 | 26406 ft | 478 kts | 135° |
| 2026-04-30 15:01 | 41.61580 | 27.36337 | 25347 ft | 470 kts | 135° |
| 2026-04-30 15:02 | 41.59512 | 27.39696 | 24746 ft | 467 kts | 135° |
| 2026-04-30 15:02 | 41.57452 | 27.43040 | 24158 ft | 464 kts | 135° |
| 2026-04-30 15:03 | 41.51346 | 27.52928 | 22294 ft | 454 kts | 134° |
| 2026-04-30 15:03 | 41.47369 | 27.59354 | 21098 ft | 445 kts | 134° |
| 2026-04-30 15:04 | 41.43465 | 27.65647 | 19912 ft | 436 kts | 134° |
| 2026-04-30 15:04 | 41.37731 | 27.74864 | 18084 ft | 425 kts | 134° |
| 2026-04-30 15:05 | 41.32174 | 27.83775 | 16314 ft | 409 kts | 134° |
| 2026-04-30 15:06 | 41.28583 | 27.89517 | 15184 ft | 399 kts | 134° |
| 2026-04-30 15:06 | 41.25072 | 27.95118 | 14063 ft | 390 kts | 134° |
| 2026-04-30 15:07 | 41.21658 | 28.00558 | 12901 ft | 381 kts | 134° |
| 2026-04-30 15:07 | 41.18307 | 28.05887 | 11821 ft | 371 kts | 134° |
| 2026-04-30 15:08 | 41.15032 | 28.11087 | 10902 ft | 359 kts | 134° |
| 2026-04-30 15:08 | 41.10535 | 28.18226 | 10472 ft | 315 kts | 134° |
| 2026-04-30 15:09 | 41.07797 | 28.22552 | 9873 ft | 303 kts | 134° |
| 2026-04-30 15:09 | 41.05115 | 28.26775 | 9163 ft | 300 kts | 134° |
| 2026-04-30 15:10 | 41.02448 | 28.30980 | 8481 ft | 296 kts | 134° |
| 2026-04-30 15:11 | 40.97668 | 28.38923 | 7826 ft | 262 kts | 117° |
| 2026-04-30 15:11 | 40.97024 | 28.43694 | 7394 ft | 265 kts | 98° |
| 2026-04-30 15:12 | 40.96401 | 28.50875 | 6731 ft | 259 kts | 99° |
| 2026-04-30 15:13 | 40.96060 | 28.55645 | 6305 ft | 259 kts | 92° |
| 2026-04-30 15:14 | 40.96047 | 28.65027 | 5478 ft | 249 kts | 91° |
| 2026-04-30 15:14 | 40.98596 | 28.70228 | 4992 ft | 235 kts | 26° |
| 2026-04-30 15:17 | 41.10814 | 28.73129 | 3463 ft | 196 kts | 1° |
| 2026-04-30 15:18 | 41.17305 | 28.72980 | 2181 ft | 173 kts | 4° |
| 2026-04-30 15:19 | 41.20488 | 28.72904 | 1548 ft | 136 kts | 5° |